Aeroporto :
LOGIN :

Iscrizione | Disclaimer

   EN    FR    IT 

 










Sommario :    VFR   VFR Marginale   IFR   IFR Intensivo   IFR Molto Intensivo
Visibilità : 
Base nubi : 
>= 8 km
>= 3000ft
5 / 8 km
1000 / 3000 ft
1500m / 5 km
500 / 1000 ft
800 / 1500m
200 / 500 ft
< 800m
< 200 ft
Simboli :   Temporali  Nebbia  Neve Forte  Precipitazioni Forti  Vento > 20 kt
SIGMETs :   Varie  Temporali  Ghiacco  Turbolenza  Onda orograficha  Ceneri Vulcaniche






- Altitudine del aeroporto : 341 ft


EPMO - Modlin

ULTIMO METAR :
  • 090800Z 22007KT 190V250 CAVOK 16/M00 Q1018

METARs OBSOLETI :
  • 090730Z 24008KT CAVOK 14/M01 Q1018
  • 090700Z 23009KT CAVOK 12/00 Q1018
  • 090630Z 22010KT CAVOK 10/01 Q1019
  • 090600Z 22008KT CAVOK 09/01 Q1019
  • 090530Z 21007KT CAVOK 08/02 Q1019

TAF TAF EPMO
Valido dal 09 a 06 ore il 10 a 06 ore UTC


090530Z 0906/1006 20004KT CAVOK
BECMG 0907/0909 27010KT
TEMPO 0910/0917 29015G28KT
PROB40
TEMPO 0912/0917 -SHRA BKN040CB
BECMG 0917/0920 34010KT
BECMG 1000/1003 28003KT



MetMap, La meteo Aeronautica in un colpo d'occhio ! - Copyright ORBIFLY Dicembre 2007 - Disclaimer

ORBIFLY MET'MAP TEAM :

Programmazione e sviluppo : Alexandra Zaïnal
Concezione : Baudouin d'Aumeries
Aiuto per la programmazione : Marc-Olivier Méhu
Supporto tecnico e logistico : Manuel Goepfert
Aiuto per la traduzione : Arnaldo La Scala

Contatto : metmap@orbifly.com




FONTI E CREDITI :

   NOAA